createdAt,value
2023-02-04T00:00:24.690Z,0
2023-02-04T00:01:24.762Z,0
2023-02-04T00:02:24.867Z,0
2023-02-04T00:03:24.734Z,0
2023-02-04T00:04:24.698Z,0
2023-02-04T00:05:24.784Z,0
2023-02-04T00:06:27.552Z,0
2023-02-04T00:07:24.705Z,0
2023-02-04T00:08:24.722Z,0
2023-02-04T00:09:24.720Z,0
2023-02-04T00:10:24.689Z,0
2023-02-04T00:11:24.828Z,0
2023-02-04T00:12:24.738Z,0
2023-02-04T00:13:24.696Z,0
2023-02-04T00:14:24.822Z,0
2023-02-04T00:15:24.752Z,0
2023-02-04T00:16:25.066Z,0
2023-02-04T00:17:27.613Z,0
2023-02-04T00:18:26.633Z,0
2023-02-04T00:19:24.709Z,0
2023-02-04T00:20:24.735Z,0
2023-02-04T00:21:24.774Z,0
2023-02-04T00:22:24.713Z,0
2023-02-04T00:23:28.481Z,0
2023-02-04T00:24:24.717Z,0
2023-02-04T00:25:24.725Z,0
2023-02-04T00:26:24.772Z,0
2023-02-04T00:27:24.765Z,0
2023-02-04T00:28:27.652Z,0
2023-02-04T00:29:24.710Z,0
2023-02-04T00:30:24.756Z,0
2023-02-04T00:31:25.258Z,0
2023-02-04T00:32:25.039Z,0
2023-02-04T00:33:24.756Z,0
2023-02-04T00:34:25.025Z,0
2023-02-04T00:35:24.732Z,0
2023-02-04T00:36:24.732Z,0
2023-02-04T00:37:24.742Z,0
2023-02-04T00:38:24.750Z,0
2023-02-04T00:39:27.869Z,0
2023-02-04T00:40:24.742Z,0
2023-02-04T00:41:24.761Z,0
2023-02-04T00:42:24.733Z,0
2023-02-04T00:43:24.797Z,0
2023-02-04T00:44:27.802Z,0
2023-02-04T00:45:24.826Z,0
2023-02-04T00:46:24.793Z,0
2023-02-04T00:47:24.847Z,0
2023-02-04T00:48:26.674Z,0
2023-02-04T00:49:24.829Z,0
2023-02-04T00:50:27.666Z,0
2023-02-04T00:51:24.780Z,0
2023-02-04T00:52:24.756Z,0
2023-02-04T00:53:24.752Z,0
2023-02-04T00:54:24.779Z,0
2023-02-04T00:55:27.662Z,0
2023-02-04T00:56:24.797Z,0
2023-02-04T00:57:24.821Z,0
2023-02-04T00:58:24.784Z,0
2023-02-04T00:59:24.759Z,0
2023-02-04T01:00:24.762Z,0
2023-02-04T01:01:27.753Z,0
2023-02-04T01:02:25.660Z,0
2023-02-04T01:03:24.882Z,0
2023-02-04T01:04:25.079Z,0
2023-02-04T01:05:24.873Z,0
2023-02-04T01:06:26.495Z,0
2023-02-04T01:07:25.072Z,0
2023-02-04T01:08:24.779Z,0
2023-02-04T01:09:24.772Z,0
2023-02-04T01:10:25.486Z,0
2023-02-04T01:11:25.136Z,0
2023-02-04T01:12:25.227Z,0
2023-02-04T01:13:24.794Z,0
2023-02-04T01:14:24.775Z,0
2023-02-04T01:15:24.796Z,0
2023-02-04T01:16:25.071Z,0
2023-02-04T01:17:24.823Z,0
2023-02-04T01:18:24.796Z,0
2023-02-04T01:19:24.990Z,0
2023-02-04T01:20:24.775Z,0
2023-02-04T01:21:24.876Z,0
2023-02-04T01:22:24.875Z,0
2023-02-04T01:23:24.813Z,0
2023-02-04T01:24:24.814Z,0
2023-02-04T01:25:25.816Z,0
2023-02-04T01:26:24.902Z,0
2023-02-04T01:27:24.812Z,0
2023-02-04T01:28:24.919Z,0
2023-02-04T01:29:24.827Z,0
2023-02-04T01:30:24.854Z,0
2023-02-04T01:31:25.643Z,0
2023-02-04T01:32:24.822Z,0
2023-02-04T01:33:27.925Z,0
2023-02-04T01:34:24.866Z,0
2023-02-04T01:35:24.913Z,0
2023-02-04T01:36:24.823Z,0
2023-02-04T01:37:24.856Z,0
2023-02-04T01:38:24.818Z,0
2023-02-04T01:39:24.807Z,0
2023-02-04T01:40:24.816Z,0
2023-02-04T01:41:24.871Z,0
2023-02-04T01:42:24.905Z,0
2023-02-04T01:43:24.838Z,0
2023-02-04T01:44:27.580Z,0
2023-02-04T01:45:27.587Z,0
2023-02-04T01:46:24.981Z,0
2023-02-04T01:47:24.865Z,0
2023-02-04T01:48:24.958Z,0
2023-02-04T01:49:27.893Z,0
2023-02-04T01:50:24.878Z,0
2023-02-04T01:51:24.909Z,0
2023-02-04T01:52:24.835Z,0
2023-02-04T01:53:24.849Z,0
2023-02-04T01:54:24.837Z,0
2023-02-04T01:55:27.692Z,0
2023-02-04T01:56:24.888Z,0
2023-02-04T01:57:24.845Z,0
2023-02-04T01:58:24.866Z,0
2023-02-04T01:59:24.841Z,0
2023-02-04T02:00:28.112Z,0
2023-02-04T02:01:25.158Z,0
2023-02-04T02:02:25.061Z,0
2023-02-04T02:03:24.867Z,0
2023-02-04T02:04:24.847Z,0
2023-02-04T02:05:24.904Z,0
2023-02-04T02:06:26.675Z,0
2023-02-04T02:07:24.892Z,0
2023-02-04T02:08:24.854Z,0
2023-02-04T02:09:24.883Z,0
2023-02-04T02:10:28.006Z,0
2023-02-04T02:11:27.748Z,0
2023-02-04T02:12:24.890Z,0
2023-02-04T02:13:25.005Z,0
2023-02-04T02:14:24.879Z,0
2023-02-04T02:15:24.868Z,0
2023-02-04T02:16:25.067Z,0
2023-02-04T02:17:27.687Z,0
2023-02-04T02:18:24.857Z,0
2023-02-04T02:19:24.883Z,0
2023-02-04T02:20:24.899Z,0
2023-02-04T02:21:24.732Z,0
2023-02-04T02:22:28.070Z,0
2023-02-04T02:23:24.911Z,0
2023-02-04T02:24:24.879Z,0
2023-02-04T02:25:24.918Z,0
2023-02-04T02:26:24.888Z,0
2023-02-04T02:27:24.906Z,0
2023-02-04T02:28:28.068Z,0
2023-02-04T02:29:24.885Z,0
2023-02-04T02:30:24.865Z,0
2023-02-04T02:31:25.566Z,0
2023-02-04T02:32:24.895Z,0
2023-02-04T02:33:27.660Z,0
2023-02-04T02:34:25.372Z,0
2023-02-04T02:35:24.889Z,0
2023-02-04T02:36:24.909Z,0
2023-02-04T02:37:24.961Z,0
2023-02-04T02:38:24.945Z,0
2023-02-04T02:39:24.911Z,0
2023-02-04T02:40:24.918Z,0
2023-02-04T02:41:24.910Z,0
2023-02-04T02:42:24.902Z,0
2023-02-04T02:43:24.904Z,0
2023-02-04T02:44:27.697Z,0
2023-02-04T02:45:24.902Z,0
2023-02-04T02:46:25.092Z,0
2023-02-04T02:47:24.981Z,0
2023-02-04T02:48:24.912Z,0
2023-02-04T02:49:24.941Z,0
2023-02-04T02:50:24.901Z,0
2023-02-04T02:51:24.903Z,0
2023-02-04T02:52:24.902Z,0
2023-02-04T02:53:24.944Z,0
2023-02-04T02:54:24.967Z,0
2023-02-04T02:55:27.771Z,0
2023-02-04T02:56:24.888Z,0
2023-02-04T02:57:25.008Z,0
2023-02-04T02:58:24.892Z,0
2023-02-04T02:59:24.926Z,0
2023-02-04T03:00:24.916Z,0
2023-02-04T03:01:25.106Z,0
2023-02-04T03:02:25.078Z,0
2023-02-04T03:03:25.124Z,0
2023-02-04T03:04:24.948Z,0
2023-02-04T03:05:24.945Z,0
2023-02-04T03:06:28.011Z,0
2023-02-04T03:07:24.954Z,0
2023-02-04T03:08:24.952Z,0
2023-02-04T03:09:24.945Z,0
2023-02-04T03:10:24.993Z,0
2023-02-04T03:11:27.986Z,0
2023-02-04T03:12:24.968Z,0
2023-02-04T03:13:24.953Z,0
2023-02-04T03:14:24.921Z,0
2023-02-04T03:15:25.007Z,0
2023-02-04T03:16:24.952Z,0
2023-02-04T03:17:27.992Z,0
2023-02-04T03:18:24.969Z,0
2023-02-04T03:19:24.962Z,0
2023-02-04T03:20:24.953Z,0
2023-02-04T03:21:24.967Z,0
2023-02-04T03:22:26.535Z,0
2023-02-04T03:23:25.001Z,0
2023-02-04T03:24:24.992Z,0
2023-02-04T03:25:24.971Z,0
2023-02-04T03:26:25.129Z,0
2023-02-04T03:27:24.962Z,0
2023-02-04T03:28:28.072Z,0
2023-02-04T03:29:24.962Z,0
2023-02-04T03:30:24.980Z,0
2023-02-04T03:31:25.437Z,0
2023-02-04T03:32:24.962Z,0
2023-02-04T03:33:27.727Z,0
2023-02-04T03:34:24.937Z,0
2023-02-04T03:35:24.967Z,0
2023-02-04T03:36:24.962Z,0
2023-02-04T03:37:24.994Z,0
2023-02-04T03:38:26.874Z,0
2023-02-04T03:39:24.950Z,0
2023-02-04T03:40:24.970Z,0
2023-02-04T03:41:25.033Z,0
2023-02-04T03:42:25.037Z,0
2023-02-04T03:43:24.958Z,0
2023-02-04T03:44:24.957Z,0
2023-02-04T03:45:26.031Z,0
2023-02-04T03:46:25.133Z,0
2023-02-04T03:47:25.063Z,0
2023-02-04T03:48:24.966Z,0
2023-02-04T03:49:25.006Z,0
2023-02-04T03:50:24.970Z,0
2023-02-04T03:51:24.968Z,0
2023-02-04T03:52:25.009Z,0
2023-02-04T03:53:24.990Z,0
2023-02-04T03:54:24.976Z,0
2023-02-04T03:55:24.991Z,0
2023-02-04T03:56:24.976Z,0
2023-02-04T03:57:25.069Z,0
2023-02-04T03:58:25.032Z,0
2023-02-04T03:59:24.971Z,0
2023-02-04T04:00:27.746Z,0
2023-02-04T04:01:25.213Z,0
2023-02-04T04:02:25.187Z,0
2023-02-04T04:03:24.982Z,0
2023-02-04T04:04:24.970Z,0
2023-02-04T04:05:25.004Z,0
2023-02-04T04:06:25.021Z,0
2023-02-04T04:07:24.998Z,0
2023-02-04T04:08:24.974Z,0
2023-02-04T04:09:24.996Z,0
2023-02-04T04:10:25.047Z,0
2023-02-04T04:11:27.868Z,0
2023-02-04T04:12:25.011Z,0
2023-02-04T04:13:25.014Z,0
2023-02-04T04:14:25.231Z,0
2023-02-04T04:15:24.974Z,0
2023-02-04T04:16:28.089Z,0
2023-02-04T04:17:25.017Z,0
2023-02-04T04:18:25.017Z,0
2023-02-04T04:19:25.014Z,0
2023-02-04T04:20:24.994Z,0
2023-02-04T04:21:25.013Z,0
2023-02-04T04:22:27.854Z,0
2023-02-04T04:23:25.005Z,0
2023-02-04T04:24:25.173Z,0
2023-02-04T04:25:25.026Z,0
2023-02-04T04:26:25.085Z,0
2023-02-04T04:27:27.944Z,0
2023-02-04T04:28:25.085Z,0
2023-02-04T04:29:25.063Z,0
2023-02-04T04:30:25.098Z,0
2023-02-04T04:31:25.719Z,0
2023-02-04T04:32:25.065Z,0
2023-02-04T04:33:27.785Z,0
2023-02-04T04:34:25.067Z,0
2023-02-04T04:35:25.240Z,0
2023-02-04T04:36:25.018Z,0
2023-02-04T04:37:25.078Z,0
2023-02-04T04:38:27.924Z,0
2023-02-04T04:39:25.044Z,0
2023-02-04T04:40:25.072Z,0
2023-02-04T04:41:25.010Z,0
2023-02-04T04:42:25.086Z,0
2023-02-04T04:43:25.015Z,0
2023-02-04T04:44:27.971Z,0
2023-02-04T04:45:25.068Z,0
2023-02-04T04:46:25.300Z,0
2023-02-04T04:47:25.971Z,0
2023-02-04T04:48:25.156Z,0
2023-02-04T04:49:27.842Z,0
2023-02-04T04:50:25.068Z,0
2023-02-04T04:51:25.075Z,0
2023-02-04T04:52:25.066Z,0
2023-02-04T04:53:25.034Z,0
2023-02-04T04:54:25.125Z,0
2023-02-04T04:55:25.045Z,0
2023-02-04T04:56:25.128Z,0
2023-02-04T04:57:25.278Z,0
2023-02-04T04:58:25.050Z,0
2023-02-04T04:59:25.034Z,0
2023-02-04T05:00:27.996Z,0
2023-02-04T05:01:25.348Z,0
2023-02-04T05:02:25.175Z,0
2023-02-04T05:03:25.064Z,0
2023-02-04T05:04:25.547Z,0
2023-02-04T05:05:25.078Z,0
2023-02-04T05:06:25.075Z,0
2023-02-04T05:07:25.085Z,0
2023-02-04T05:08:25.098Z,0
2023-02-04T05:09:25.041Z,0
2023-02-04T05:10:25.101Z,0
2023-02-04T05:11:28.136Z,0
2023-02-04T05:12:25.104Z,0
2023-02-04T05:13:25.098Z,0
2023-02-04T05:14:25.077Z,0
2023-02-04T05:15:25.083Z,0
2023-02-04T05:16:25.460Z,0
2023-02-04T05:17:25.103Z,0
2023-02-04T05:18:25.112Z,0
2023-02-04T05:19:25.084Z,0
2023-02-04T05:20:25.086Z,0
2023-02-04T05:21:25.172Z,0
2023-02-04T05:22:28.146Z,0
2023-02-04T05:23:25.089Z,0
2023-02-04T05:24:25.098Z,0
2023-02-04T05:25:25.099Z,0
2023-02-04T05:26:36.672Z,0
2023-02-04T05:27:25.110Z,0
2023-02-04T05:28:25.290Z,0
2023-02-04T05:29:25.125Z,0
2023-02-04T05:30:25.131Z,0
2023-02-04T05:31:25.693Z,0
2023-02-04T05:32:25.096Z,0
2023-02-04T05:33:28.238Z,0
2023-02-04T05:34:25.128Z,0
2023-02-04T05:35:25.115Z,0
2023-02-04T05:36:25.151Z,0
2023-02-04T05:37:25.088Z,0
2023-02-04T05:38:25.307Z,0
2023-02-04T05:39:25.110Z,0
2023-02-04T05:40:25.129Z,0
2023-02-04T05:41:25.094Z,0
2023-02-04T05:42:25.122Z,0
2023-02-04T05:43:25.097Z,0
2023-02-04T05:44:29.798Z,0
2023-02-04T05:45:25.241Z,0
2023-02-04T05:46:25.174Z,0
2023-02-04T05:47:25.202Z,0
2023-02-04T05:48:30.029Z,0
2023-02-04T05:49:28.245Z,0
2023-02-04T05:50:25.148Z,0
2023-02-04T05:51:25.113Z,0
2023-02-04T05:52:25.131Z,0
2023-02-04T05:53:26.294Z,0
2023-02-04T05:54:25.186Z,0
2023-02-04T05:55:27.911Z,0
2023-02-04T05:56:25.132Z,0
2023-02-04T05:57:25.123Z,0
2023-02-04T05:58:25.129Z,0
2023-02-04T05:59:25.110Z,0
2023-02-04T06:00:28.169Z,0
2023-02-04T06:01:25.201Z,0
2023-02-04T06:02:25.131Z,0
2023-02-04T06:03:25.396Z,0
2023-02-04T06:04:25.640Z,0
2023-02-04T06:05:25.235Z,0
2023-02-04T06:06:26.153Z,0
2023-02-04T06:07:25.157Z,0
2023-02-04T06:08:25.162Z,0
2023-02-04T06:09:25.176Z,0
2023-02-04T06:10:25.130Z,0
2023-02-04T06:11:25.148Z,0
2023-02-04T06:12:25.152Z,0
2023-02-04T06:13:25.159Z,0
2023-02-04T06:14:25.155Z,0
2023-02-04T06:15:25.127Z,0
2023-02-04T06:16:25.361Z,0
2023-02-04T06:17:25.337Z,0
2023-02-04T06:18:25.177Z,0
2023-02-04T06:19:25.149Z,0
2023-02-04T06:20:25.169Z,0
2023-02-04T06:21:25.245Z,0
2023-02-04T06:22:25.188Z,0
2023-02-04T06:23:25.182Z,0
2023-02-04T06:24:25.199Z,0
2023-02-04T06:25:25.162Z,0
2023-02-04T06:26:25.399Z,0
2023-02-04T06:27:28.083Z,0
2023-02-04T06:28:25.314Z,0
2023-02-04T06:29:25.223Z,0
2023-02-04T06:30:25.237Z,0
2023-02-04T06:31:27.008Z,0
2023-02-04T06:32:25.208Z,0
2023-02-04T06:33:25.196Z,0
2023-02-04T06:34:25.202Z,0
2023-02-04T06:35:25.169Z,0
2023-02-04T06:36:25.199Z,0
2023-02-04T06:37:26.781Z,0
2023-02-04T06:38:27.969Z,0
2023-02-04T06:39:25.182Z,4
2023-02-04T06:40:25.216Z,4
2023-02-04T06:41:25.232Z,4
2023-02-04T06:42:25.233Z,4
2023-02-04T06:43:28.598Z,0
2023-02-04T06:44:25.173Z,4
2023-02-04T06:45:25.175Z,0
2023-02-04T06:46:25.473Z,0
2023-02-04T06:47:25.199Z,4
2023-02-04T06:48:25.287Z,4
2023-02-04T06:49:28.314Z,4
2023-02-04T06:50:25.189Z,4
2023-02-04T06:51:25.214Z,8
2023-02-04T06:52:25.225Z,8
2023-02-04T06:53:25.262Z,8
2023-02-04T06:54:28.240Z,4
2023-02-04T06:55:25.249Z,8
2023-02-04T06:56:25.269Z,8
2023-02-04T06:57:25.212Z,8
2023-02-04T06:58:25.246Z,12
2023-02-04T06:59:25.226Z,12
2023-02-04T07:00:28.315Z,16
2023-02-04T07:01:25.398Z,12
2023-02-04T07:02:25.401Z,16
2023-02-04T07:03:26.309Z,20
2023-02-04T07:04:25.242Z,16
2023-02-04T07:05:28.299Z,20
2023-02-04T07:06:25.461Z,16
2023-02-04T07:07:25.255Z,20
2023-02-04T07:08:25.322Z,20
2023-02-04T07:09:25.288Z,20
2023-02-04T07:10:25.239Z,20
2023-02-04T07:11:28.280Z,20
2023-02-04T07:12:25.326Z,24
2023-02-04T07:13:25.266Z,36
2023-02-04T07:14:25.435Z,52
2023-02-04T07:15:25.262Z,224
2023-02-04T07:16:28.395Z,124
2023-02-04T07:17:25.264Z,44
2023-02-04T07:18:25.297Z,36
2023-02-04T07:19:27.740Z,36
2023-02-04T07:20:25.240Z,36
2023-02-04T07:21:25.315Z,40
2023-02-04T07:22:25.244Z,36
2023-02-04T07:23:25.338Z,44
2023-02-04T07:24:25.311Z,40
2023-02-04T07:25:25.360Z,40
2023-02-04T07:26:25.269Z,40
2023-02-04T07:27:28.286Z,44
2023-02-04T07:28:25.418Z,48
2023-02-04T07:29:32.251Z,56
2023-02-04T07:30:25.283Z,60
2023-02-04T07:31:25.979Z,64
2023-02-04T07:32:25.287Z,76
2023-02-04T07:33:25.310Z,84
2023-02-04T07:34:25.333Z,84
2023-02-04T07:35:25.303Z,76
2023-02-04T07:36:25.584Z,84
2023-02-04T07:37:25.302Z,92
2023-02-04T07:38:28.367Z,108
2023-02-04T07:39:25.293Z,116
2023-02-04T07:40:25.304Z,108
2023-02-04T07:41:25.671Z,112
2023-02-04T07:42:25.382Z,120
2023-02-04T07:43:25.307Z,132
2023-02-04T07:44:25.304Z,148
2023-02-04T07:45:25.282Z,336
2023-02-04T07:46:25.635Z,228
2023-02-04T07:47:25.320Z,216
2023-02-04T07:48:25.339Z,372
2023-02-04T07:49:28.193Z,300
2023-02-04T07:50:26.320Z,248
2023-02-04T07:51:27.050Z,136
2023-02-04T07:52:25.317Z,116
2023-02-04T07:53:25.313Z,116
2023-02-04T07:54:25.585Z,132
2023-02-04T07:55:25.338Z,136
2023-02-04T07:56:25.300Z,148
2023-02-04T07:57:27.276Z,172
2023-02-04T07:58:25.290Z,180
2023-02-04T07:59:25.323Z,176
2023-02-04T08:00:28.447Z,184
2023-02-04T08:01:25.477Z,208
2023-02-04T08:02:25.471Z,244
2023-02-04T08:03:28.294Z,320
2023-02-04T08:04:25.328Z,312
2023-02-04T08:05:28.100Z,348
2023-02-04T08:06:25.350Z,376
2023-02-04T08:07:25.298Z,404
2023-02-04T08:08:25.337Z,444
2023-02-04T08:09:25.341Z,952
2023-02-04T08:10:25.296Z,240
2023-02-04T08:11:28.191Z,228
2023-02-04T08:12:26.318Z,196
2023-02-04T08:13:25.353Z,192
2023-02-04T08:14:25.328Z,196
2023-02-04T08:15:25.325Z,208
2023-02-04T08:16:28.590Z,228
2023-02-04T08:17:25.324Z,228
2023-02-04T08:18:25.317Z,232
2023-02-04T08:19:25.344Z,224
2023-02-04T08:20:25.328Z,224
2023-02-04T08:21:26.491Z,224
2023-02-04T08:22:28.252Z,236
2023-02-04T08:23:25.348Z,240
2023-02-04T08:24:25.368Z,236
2023-02-04T08:25:25.335Z,224
2023-02-04T08:26:25.354Z,228
2023-02-04T08:27:28.456Z,248
2023-02-04T08:28:25.504Z,244
2023-02-04T08:29:25.423Z,232
2023-02-04T08:30:25.337Z,216
2023-02-04T08:31:26.045Z,208
2023-02-04T08:32:25.376Z,220
2023-02-04T08:33:25.343Z,232
2023-02-04T08:34:25.363Z,228
2023-02-04T08:35:25.351Z,220
2023-02-04T08:36:25.346Z,212
2023-02-04T08:37:25.324Z,196
2023-02-04T08:38:26.143Z,200
2023-02-04T08:39:25.397Z,168
2023-02-04T08:40:27.327Z,148
2023-02-04T08:41:28.143Z,148
2023-02-04T08:42:25.359Z,156
2023-02-04T08:43:25.372Z,168
2023-02-04T08:44:25.420Z,184
2023-02-04T08:45:25.520Z,180
2023-02-04T08:46:25.629Z,188
2023-02-04T08:47:25.359Z,196
2023-02-04T08:48:25.421Z,212
2023-02-04T08:49:25.510Z,232
2023-02-04T08:50:25.424Z,244
2023-02-04T08:51:25.380Z,276
2023-02-04T08:52:25.387Z,288
2023-02-04T08:53:25.382Z,312
2023-02-04T08:54:28.647Z,304
2023-02-04T08:55:25.400Z,292
2023-02-04T08:56:25.400Z,328
2023-02-04T08:57:25.406Z,324
2023-02-04T08:58:25.408Z,308
2023-02-04T08:59:25.430Z,296
2023-02-04T09:00:26.587Z,292
2023-02-04T09:01:25.721Z,304
2023-02-04T09:02:25.724Z,328
2023-02-04T09:03:25.239Z,336
2023-02-04T09:04:25.468Z,388
2023-02-04T09:05:28.310Z,388
2023-02-04T09:06:25.436Z,372
2023-02-04T09:07:25.433Z,376
2023-02-04T09:08:25.468Z,380
2023-02-04T09:09:30.960Z,376
2023-02-04T09:10:28.355Z,368
2023-02-04T09:11:25.458Z,380
2023-02-04T09:12:25.472Z,384
2023-02-04T09:13:25.458Z,388
2023-02-04T09:14:25.461Z,372
2023-02-04T09:15:25.454Z,368
2023-02-04T09:16:28.906Z,360
2023-02-04T09:17:25.463Z,336
2023-02-04T09:18:25.454Z,340
2023-02-04T09:19:25.584Z,336
2023-02-04T09:20:25.568Z,340
2023-02-04T09:21:28.546Z,344
2023-02-04T09:22:25.448Z,348
2023-02-04T09:23:25.458Z,348
2023-02-04T09:24:25.492Z,344
2023-02-04T09:25:25.459Z,344
2023-02-04T09:26:25.512Z,348
2023-02-04T09:27:28.221Z,356
2023-02-04T09:28:25.607Z,360
2023-02-04T09:29:25.477Z,372
2023-02-04T09:30:25.528Z,388
2023-02-04T09:31:26.125Z,408
2023-02-04T09:32:28.548Z,404
2023-02-04T09:33:25.455Z,392
2023-02-04T09:34:25.496Z,388
2023-02-04T09:35:25.459Z,384
2023-02-04T09:36:25.495Z,412
2023-02-04T09:37:25.457Z,400
2023-02-04T09:38:28.546Z,396
2023-02-04T09:39:25.486Z,372
2023-02-04T09:40:25.677Z,424
2023-02-04T09:41:25.473Z,504
2023-02-04T09:42:25.487Z,452
2023-02-04T09:43:28.640Z,504
2023-02-04T09:44:25.518Z,504
2023-02-04T09:45:25.473Z,520
2023-02-04T09:46:25.550Z,436
2023-02-04T09:47:25.688Z,496
2023-02-04T09:48:25.510Z,496
2023-02-04T09:49:28.616Z,620
2023-02-04T09:50:25.547Z,568
2023-02-04T09:51:25.493Z,460
2023-02-04T09:52:25.533Z,488
2023-02-04T09:53:25.498Z,468
2023-02-04T09:54:28.520Z,476
2023-02-04T09:55:25.502Z,404
2023-02-04T09:56:25.503Z,412
2023-02-04T09:57:25.494Z,348
2023-02-04T09:58:25.519Z,344
2023-02-04T09:59:25.507Z,352
2023-02-04T10:00:28.340Z,352
2023-02-04T10:01:26.054Z,364
2023-02-04T10:02:25.521Z,384
2023-02-04T10:03:25.583Z,384
2023-02-04T10:04:28.894Z,380
2023-02-04T10:05:28.531Z,368
2023-02-04T10:06:25.499Z,352
2023-02-04T10:07:25.498Z,372
2023-02-04T10:08:25.535Z,368
2023-02-04T10:09:25.544Z,340
2023-02-04T10:10:25.548Z,384
2023-02-04T10:11:25.495Z,412
2023-02-04T10:12:25.520Z,636
2023-02-04T10:13:25.487Z,776
2023-02-04T10:14:25.569Z,504
2023-02-04T10:15:26.549Z,348
2023-02-04T10:16:25.815Z,332
2023-02-04T10:17:28.206Z,320
2023-02-04T10:18:25.504Z,304
2023-02-04T10:19:25.535Z,292
2023-02-04T10:20:25.624Z,324
2023-02-04T10:21:25.526Z,292
2023-02-04T10:22:25.497Z,292
2023-02-04T10:23:25.482Z,280
2023-02-04T10:24:25.553Z,268
2023-02-04T10:25:25.527Z,268
2023-02-04T10:26:25.509Z,268
2023-02-04T10:27:28.374Z,276
2023-02-04T10:28:26.606Z,284
2023-02-04T10:29:25.548Z,292
2023-02-04T10:30:25.695Z,296
2023-02-04T10:31:26.142Z,312
2023-02-04T10:32:25.513Z,320
2023-02-04T10:33:25.500Z,332
2023-02-04T10:34:26.128Z,348
2023-02-04T10:35:25.540Z,372
2023-02-04T10:36:25.559Z,388
2023-02-04T10:37:25.545Z,404
2023-02-04T10:38:28.629Z,420
2023-02-04T10:39:25.573Z,436
2023-02-04T10:40:25.596Z,444
2023-02-04T10:41:25.531Z,452
2023-02-04T10:42:25.554Z,452
2023-02-04T10:43:28.211Z,452
2023-02-04T10:44:25.541Z,456
2023-02-04T10:45:25.545Z,464
2023-02-04T10:46:25.826Z,696
2023-02-04T10:47:25.545Z,548
2023-02-04T10:48:25.538Z,588
2023-02-04T10:49:28.318Z,512
2023-02-04T10:50:25.651Z,448
2023-02-04T10:51:25.555Z,432
2023-02-04T10:52:25.582Z,416
2023-02-04T10:53:25.583Z,392
2023-02-04T10:54:26.667Z,372
2023-02-04T10:55:25.581Z,380
2023-02-04T10:56:25.571Z,376
2023-02-04T10:57:28.456Z,344
2023-02-04T10:58:25.565Z,344
2023-02-04T10:59:25.582Z,336
2023-02-04T11:00:25.707Z,328
2023-02-04T11:01:26.036Z,328
2023-02-04T11:02:26.561Z,332
2023-02-04T11:03:25.876Z,340
2023-02-04T11:04:25.579Z,344
2023-02-04T11:05:25.579Z,344
2023-02-04T11:06:25.552Z,348
2023-02-04T11:07:25.648Z,364
2023-02-04T11:08:25.593Z,352
2023-02-04T11:09:25.574Z,344
2023-02-04T11:10:25.578Z,352
2023-02-04T11:11:25.544Z,324
2023-02-04T11:12:25.592Z,316
2023-02-04T11:13:28.560Z,308
2023-02-04T11:14:25.594Z,308
2023-02-04T11:15:25.561Z,304
2023-02-04T11:16:26.182Z,304
2023-02-04T11:17:25.575Z,296
2023-02-04T11:18:25.790Z,300
2023-02-04T11:19:25.626Z,304
2023-02-04T11:20:25.574Z,308
2023-02-04T11:21:29.096Z,304
2023-02-04T11:22:25.589Z,296
2023-02-04T11:23:25.651Z,292
2023-02-04T11:24:25.665Z,284
2023-02-04T11:25:25.599Z,280
2023-02-04T11:26:25.615Z,280
2023-02-04T11:27:25.639Z,280
2023-02-04T11:28:25.677Z,284
2023-02-04T11:29:25.592Z,288
2023-02-04T11:30:25.623Z,292
2023-02-04T11:31:26.300Z,296
2023-02-04T11:32:31.228Z,304
2023-02-04T11:33:25.629Z,312
2023-02-04T11:34:25.619Z,320
2023-02-04T11:35:25.612Z,324
2023-02-04T11:36:25.580Z,332
2023-02-04T11:37:28.631Z,336
2023-02-04T11:38:25.684Z,340
2023-02-04T11:39:25.641Z,340
2023-02-04T11:40:25.824Z,340
2023-02-04T11:41:25.592Z,340
2023-02-04T11:42:25.618Z,340
2023-02-04T11:43:31.784Z,352
2023-02-04T11:44:25.639Z,352
2023-02-04T11:45:25.658Z,356
2023-02-04T11:46:25.811Z,352
2023-02-04T11:47:25.610Z,344
2023-02-04T11:48:28.436Z,336
2023-02-04T11:49:25.643Z,324
2023-02-04T11:50:25.621Z,308
2023-02-04T11:51:25.698Z,296
2023-02-04T11:52:25.607Z,288
2023-02-04T11:53:25.605Z,284
2023-02-04T11:54:28.678Z,284
2023-02-04T11:55:25.597Z,280
2023-02-04T11:56:25.685Z,276
2023-02-04T11:57:25.623Z,268
2023-02-04T11:58:25.621Z,264
2023-02-04T11:59:26.408Z,252
2023-02-04T12:00:25.673Z,248
2023-02-04T12:01:25.915Z,248
2023-02-04T12:02:25.849Z,240
2023-02-04T12:03:25.910Z,240
2023-02-04T12:04:25.685Z,240
2023-02-04T12:05:28.410Z,240
2023-02-04T12:06:25.797Z,240
2023-02-04T12:07:25.662Z,236
2023-02-04T12:08:25.694Z,236
2023-02-04T12:09:25.650Z,232
2023-02-04T12:10:28.427Z,232
2023-02-04T12:11:25.621Z,232
2023-02-04T12:12:25.680Z,228
2023-02-04T12:13:25.878Z,228
2023-02-04T12:14:25.689Z,228
2023-02-04T12:15:25.663Z,232
2023-02-04T12:16:28.662Z,236
2023-02-04T12:17:25.716Z,236
2023-02-04T12:18:25.641Z,244
2023-02-04T12:19:27.619Z,252
2023-02-04T12:20:25.725Z,256
2023-02-04T12:21:28.676Z,268
2023-02-04T12:22:25.647Z,272
2023-02-04T12:23:25.647Z,276
2023-02-04T12:24:25.715Z,284
2023-02-04T12:25:25.653Z,280
2023-02-04T12:26:25.684Z,280
2023-02-04T12:27:28.753Z,280
2023-02-04T12:28:26.010Z,280
2023-02-04T12:29:25.665Z,284
2023-02-04T12:30:25.659Z,284
2023-02-04T12:31:27.459Z,288
2023-02-04T12:32:28.483Z,292
2023-02-04T12:33:25.695Z,292
2023-02-04T12:34:25.814Z,292
2023-02-04T12:35:25.670Z,292
2023-02-04T12:36:25.685Z,288
2023-02-04T12:37:25.681Z,284
2023-02-04T12:38:30.178Z,284
2023-02-04T12:39:25.690Z,284
2023-02-04T12:40:25.721Z,280
2023-02-04T12:41:25.750Z,276
2023-02-04T12:42:25.676Z,272
2023-02-04T12:43:30.715Z,276
2023-02-04T12:44:25.728Z,272
2023-02-04T12:45:25.702Z,272
2023-02-04T12:46:26.129Z,268
2023-02-04T12:47:25.700Z,264
2023-02-04T12:48:26.183Z,260
2023-02-04T12:49:25.719Z,256
2023-02-04T12:50:25.533Z,256
2023-02-04T12:51:25.745Z,256
2023-02-04T12:52:25.731Z,256
2023-02-04T12:53:25.718Z,260
2023-02-04T12:54:27.139Z,264
2023-02-04T12:55:25.684Z,260
2023-02-04T12:56:25.695Z,264
2023-02-04T12:57:25.706Z,264
2023-02-04T12:58:25.728Z,260
2023-02-04T12:59:25.776Z,256
2023-02-04T13:00:25.855Z,244
2023-02-04T13:01:25.892Z,236
2023-02-04T13:02:25.951Z,228
2023-02-04T13:03:25.740Z,220
2023-02-04T13:04:25.722Z,216
2023-02-04T13:05:28.464Z,208
2023-02-04T13:06:25.729Z,200
2023-02-04T13:07:25.767Z,204
2023-02-04T13:08:25.746Z,196
2023-02-04T13:09:25.717Z,192
2023-02-04T13:10:28.856Z,192
2023-02-04T13:11:25.922Z,192
2023-02-04T13:12:25.684Z,196
2023-02-04T13:13:25.807Z,200
2023-02-04T13:14:28.915Z,200
2023-02-04T13:15:25.749Z,204
2023-02-04T13:16:29.088Z,236
2023-02-04T13:17:25.700Z,216
2023-02-04T13:18:25.760Z,208
2023-02-04T13:19:25.768Z,208
2023-02-04T13:20:25.759Z,208
2023-02-04T13:21:28.695Z,216
2023-02-04T13:22:25.711Z,220
2023-02-04T13:23:25.745Z,220
2023-02-04T13:24:25.564Z,224
2023-02-04T13:25:25.759Z,224
2023-02-04T13:26:25.721Z,220
2023-02-04T13:27:25.754Z,220
2023-02-04T13:28:25.963Z,220
2023-02-04T13:29:25.769Z,216
2023-02-04T13:30:26.034Z,216
2023-02-04T13:31:26.090Z,212
2023-02-04T13:32:25.763Z,212
2023-02-04T13:33:25.740Z,212
2023-02-04T13:34:25.746Z,216
2023-02-04T13:35:25.784Z,216
2023-02-04T13:36:25.772Z,220
2023-02-04T13:37:25.748Z,216
2023-02-04T13:38:25.770Z,208
2023-02-04T13:39:25.740Z,200
2023-02-04T13:40:25.775Z,204
2023-02-04T13:41:25.775Z,200
2023-02-04T13:42:25.758Z,200
2023-02-04T13:43:25.760Z,200
2023-02-04T13:44:25.764Z,200
2023-02-04T13:45:26.307Z,200
2023-02-04T13:46:25.839Z,200
2023-02-04T13:47:25.784Z,200
2023-02-04T13:48:28.608Z,196
2023-02-04T13:49:25.789Z,192
2023-02-04T13:50:25.984Z,188
2023-02-04T13:51:25.787Z,180
2023-02-04T13:52:25.809Z,176
2023-02-04T13:53:25.782Z,172
2023-02-04T13:54:25.764Z,168
2023-02-04T13:55:25.807Z,164
2023-02-04T13:56:25.804Z,160
2023-02-04T13:57:25.827Z,164
2023-02-04T13:58:25.776Z,160
2023-02-04T13:59:30.960Z,160
2023-02-04T14:00:25.808Z,160
2023-02-04T14:01:26.109Z,160
2023-02-04T14:02:26.557Z,156
2023-02-04T14:03:25.825Z,156
2023-02-04T14:04:29.721Z,156
2023-02-04T14:05:25.815Z,160
2023-02-04T14:06:25.824Z,160
2023-02-04T14:07:25.862Z,164
2023-02-04T14:08:25.458Z,160
2023-02-04T14:09:25.334Z,160
2023-02-04T14:10:28.087Z,164
2023-02-04T14:11:25.621Z,164
2023-02-04T14:12:25.788Z,168
2023-02-04T14:13:25.840Z,176
2023-02-04T14:14:25.831Z,180
2023-02-04T14:15:27.265Z,184
2023-02-04T14:16:26.115Z,192